createdAt,value
2022-12-06T00:01:06.861Z,8.43
2022-12-06T00:03:34.866Z,8.70
2022-12-06T00:06:08.222Z,8.27
2022-12-06T00:08:35.979Z,8.75
2022-12-06T00:11:20.419Z,8.95
2022-12-06T00:13:48.392Z,7.85
2022-12-06T00:16:17.609Z,8.48
2022-12-06T00:18:46.300Z,8.10
2022-12-06T00:21:24.500Z,8.98
2022-12-06T00:23:55.105Z,8.02
2022-12-06T00:26:23.286Z,9.00
2022-12-06T00:28:53.813Z,8.50
2022-12-06T00:31:22.493Z,8.52
2022-12-06T00:33:50.040Z,7.45
2022-12-06T00:36:44.965Z,8.18
2022-12-06T00:39:14.923Z,7.90
2022-12-06T00:41:43.126Z,8.00
2022-12-06T00:44:10.973Z,7.95
2022-12-06T00:46:38.754Z,7.88
2022-12-06T00:49:07.685Z,8.00
2022-12-06T00:51:35.932Z,7.25
2022-12-06T00:54:03.949Z,7.35
2022-12-06T00:56:31.911Z,7.47
2022-12-06T00:58:59.311Z,7.07
2022-12-06T01:01:29.278Z,6.63
2022-12-06T01:04:00.823Z,8.23
2022-12-06T01:06:31.504Z,7.95
2022-12-06T01:09:01.586Z,7.35
2022-12-06T01:11:29.265Z,7.53
2022-12-06T01:13:56.594Z,7.22
2022-12-06T01:16:26.326Z,7.32
2022-12-06T01:18:58.135Z,8.48
2022-12-06T01:21:26.258Z,7.30
2022-12-06T01:23:55.094Z,8.23
2022-12-06T01:26:28.068Z,8.63
2022-12-06T01:28:55.471Z,8.15
2022-12-06T01:31:22.593Z,9.10
2022-12-06T01:33:49.805Z,8.52
2022-12-06T01:36:18.750Z,7.97
2022-12-06T01:38:56.636Z,8.25
2022-12-06T01:41:25.370Z,8.25
2022-12-06T01:43:53.542Z,9.60
2022-12-06T01:46:43.700Z,10.52
2022-12-06T01:49:13.753Z,8.18
2022-12-06T01:51:46.160Z,10.00
2022-12-06T01:54:16.084Z,9.45
2022-12-06T01:56:44.373Z,9.80
2022-12-06T01:59:13.855Z,11.00
2022-12-06T02:01:41.863Z,9.50
2022-12-06T02:04:09.374Z,9.45
2022-12-06T02:06:37.812Z,10.30
2022-12-06T02:09:07.217Z,8.57
2022-12-06T02:11:35.665Z,9.43
2022-12-06T02:14:10.170Z,8.80
2022-12-06T02:16:43.412Z,7.90
2022-12-06T02:19:54.947Z,8.50
2022-12-06T02:22:36.882Z,9.52
2022-12-06T02:25:43.566Z,7.72
2022-12-06T02:28:19.585Z,7.78
2022-12-06T02:30:52.303Z,7.68
2022-12-06T02:33:42.505Z,7.47
2022-12-06T02:36:36.263Z,7.72
2022-12-06T02:39:10.009Z,7.45
2022-12-06T02:41:42.991Z,8.07
2022-12-06T02:44:17.890Z,8.13
2022-12-06T02:46:46.186Z,7.43
2022-12-06T02:49:14.589Z,8.48
2022-12-06T02:51:41.983Z,8.13
2022-12-06T02:54:11.845Z,7.63
2022-12-06T02:56:39.053Z,7.68
2022-12-06T02:59:06.174Z,8.27
2022-12-06T03:01:38.154Z,7.50
2022-12-06T03:04:31.722Z,8.93
2022-12-06T03:07:27.842Z,8.40
2022-12-06T03:10:22.299Z,7.78
2022-12-06T03:13:07.510Z,8.18
2022-12-06T03:15:56.417Z,8.82
2022-12-06T03:18:37.972Z,9.95
2022-12-06T03:21:30.024Z,10.02
2022-12-06T03:23:58.463Z,7.68
2022-12-06T03:26:29.809Z,7.18
2022-12-06T03:29:00.364Z,7.93
2022-12-06T03:31:31.795Z,8.43
2022-12-06T03:34:03.916Z,8.13
2022-12-06T03:36:32.569Z,6.97
2022-12-06T03:39:03.609Z,7.90
2022-12-06T03:41:37.509Z,6.95
2022-12-06T03:44:05.116Z,6.88
2022-12-06T03:46:37.270Z,7.10
2022-12-06T03:49:47.940Z,6.88
2022-12-06T03:52:14.992Z,5.93
2022-12-06T03:54:42.597Z,5.97
2022-12-06T03:57:10.042Z,6.30
2022-12-06T03:59:36.969Z,5.90
2022-12-06T04:02:03.949Z,5.80
2022-12-06T04:04:31.082Z,5.50
2022-12-06T04:06:58.020Z,5.03
2022-12-06T04:09:43.421Z,6.22
2022-12-06T04:12:29.188Z,5.93
2022-12-06T04:14:56.267Z,5.07
2022-12-06T04:17:41.641Z,5.38
2022-12-06T04:20:08.981Z,5.28
2022-12-06T04:22:54.732Z,5.05
2022-12-06T04:25:21.861Z,5.15
2022-12-06T04:28:07.557Z,5.50
2022-12-06T04:30:53.341Z,4.88
2022-12-06T04:33:39.367Z,3.55
2022-12-06T04:36:24.999Z,4.20
2022-12-06T04:38:52.066Z,4.43
2022-12-06T04:41:37.421Z,4.35
2022-12-06T04:44:06.009Z,5.93
2022-12-06T04:46:33.649Z,5.20
2022-12-06T04:49:00.768Z,5.93
2022-12-06T04:51:27.889Z,4.90
2022-12-06T04:53:55.292Z,4.43
2022-12-06T04:56:22.281Z,4.88
2022-12-06T04:58:49.415Z,4.93
2022-12-06T05:01:16.444Z,4.20
2022-12-06T05:03:44.674Z,4.75
2022-12-06T05:06:11.965Z,4.78
2022-12-06T05:08:38.971Z,5.78
2022-12-06T05:11:06.425Z,5.88
2022-12-06T05:13:33.455Z,5.18
2022-12-06T05:16:04.794Z,5.03
2022-12-06T05:18:32.303Z,4.93
2022-12-06T05:21:08.494Z,5.47
2022-12-06T05:23:36.151Z,5.45
2022-12-06T05:26:06.130Z,5.47
2022-12-06T05:28:33.874Z,4.85
2022-12-06T05:31:01.493Z,4.95
2022-12-06T05:33:28.790Z,4.97
2022-12-06T05:35:55.892Z,4.55
2022-12-06T05:38:23.176Z,5.28
2022-12-06T05:40:50.244Z,4.50
2022-12-06T05:43:17.694Z,5.50
2022-12-06T05:45:44.765Z,5.15
2022-12-06T05:48:11.891Z,4.60
2022-12-06T05:50:38.889Z,5.15
2022-12-06T05:53:06.302Z,5.55
2022-12-06T05:55:33.351Z,6.60
2022-12-06T05:58:00.318Z,6.13
2022-12-06T06:00:27.464Z,5.68
2022-12-06T06:02:54.720Z,5.78
2022-12-06T06:05:21.987Z,5.45
2022-12-06T06:07:49.297Z,5.43
2022-12-06T06:10:16.807Z,6.05
2022-12-06T06:12:47.524Z,5.60
2022-12-06T06:15:15.099Z,5.90
2022-12-06T06:17:43.376Z,6.22
2022-12-06T06:20:14.012Z,5.90
2022-12-06T06:22:42.595Z,6.30
2022-12-06T06:25:10.218Z,6.75
2022-12-06T06:27:38.332Z,6.88
2022-12-06T06:30:07.405Z,6.70
2022-12-06T06:32:34.846Z,6.00
2022-12-06T06:35:02.318Z,6.00
2022-12-06T06:37:29.357Z,11.38
2022-12-06T06:39:56.663Z,7.57
2022-12-06T06:42:23.650Z,6.60
2022-12-06T06:44:52.058Z,5.70
2022-12-06T06:47:19.058Z,5.85
2022-12-06T06:49:46.180Z,5.60
2022-12-06T06:52:13.155Z,5.30
2022-12-06T06:54:40.270Z,6.13
2022-12-06T06:57:08.854Z,6.55
2022-12-06T06:59:37.465Z,7.90
2022-12-06T07:02:04.512Z,7.57
2022-12-06T07:04:31.545Z,7.93
2022-12-06T07:06:58.603Z,8.02
2022-12-06T07:09:25.639Z,6.47
2022-12-06T07:11:53.981Z,6.25
2022-12-06T07:14:20.999Z,5.75
2022-12-06T07:16:48.075Z,5.53
2022-12-06T07:19:15.074Z,6.07
2022-12-06T07:21:42.173Z,6.25
2022-12-06T07:24:10.043Z,6.13
2022-12-06T07:26:37.245Z,5.97
2022-12-06T07:29:04.250Z,6.60
2022-12-06T07:31:31.642Z,5.95
2022-12-06T07:34:00.931Z,6.43
2022-12-06T07:36:31.230Z,6.00
2022-12-06T07:38:59.805Z,6.75
2022-12-06T07:41:48.162Z,6.97
2022-12-06T07:45:04.706Z,6.88
2022-12-06T07:47:40.260Z,6.95
2022-12-06T07:50:16.011Z,6.63
2022-12-06T07:52:46.553Z,8.20
2022-12-06T07:55:14.094Z,7.28
2022-12-06T07:57:43.752Z,7.32
2022-12-06T08:00:16.861Z,8.95
2022-12-06T08:02:44.375Z,7.43
2022-12-06T08:05:11.871Z,8.35
2022-12-06T08:07:39.547Z,7.60
2022-12-06T08:10:07.459Z,8.75
2022-12-06T08:12:34.619Z,8.15
2022-12-06T08:15:01.654Z,8.23
2022-12-06T08:17:30.434Z,10.68
2022-12-06T08:19:57.730Z,7.88
2022-12-06T08:22:25.510Z,8.57
2022-12-06T08:24:52.650Z,9.80
2022-12-06T08:27:19.872Z,10.73
2022-12-06T08:29:46.830Z,12.32
2022-12-06T08:32:13.896Z,11.60
2022-12-06T08:34:40.908Z,10.73
2022-12-06T08:37:08.113Z,10.35
2022-12-06T08:39:35.215Z,11.20
2022-12-06T08:42:06.508Z,11.32
2022-12-06T08:44:33.704Z,10.27
2022-12-06T08:47:02.641Z,11.75
2022-12-06T08:49:30.899Z,9.43
2022-12-06T08:51:59.698Z,12.13
2022-12-06T08:54:26.959Z,10.27
2022-12-06T08:56:54.560Z,10.10
2022-12-06T08:59:21.806Z,9.75
2022-12-06T09:01:48.961Z,8.80
2022-12-06T09:04:16.548Z,8.95
2022-12-06T09:06:45.212Z,9.32
2022-12-06T09:09:13.601Z,9.75
2022-12-06T09:11:41.569Z,10.43
2022-12-06T09:14:10.727Z,10.18
2022-12-06T09:16:37.867Z,9.25
2022-12-06T09:19:04.995Z,10.32
2022-12-06T09:21:33.125Z,10.40
2022-12-06T09:24:00.765Z,10.68
2022-12-06T09:26:28.756Z,9.80
2022-12-06T09:28:58.036Z,10.20
2022-12-06T09:31:25.756Z,10.65
2022-12-06T09:33:52.873Z,10.73
2022-12-06T09:36:24.432Z,9.88
2022-12-06T09:38:58.648Z,10.25
2022-12-06T09:41:44.377Z,9.43
2022-12-06T09:44:14.219Z,9.48
2022-12-06T09:46:50.230Z,9.48
2022-12-06T09:49:42.200Z,9.82
2022-12-06T09:52:27.522Z,10.30
2022-12-06T09:55:19.485Z,9.80
2022-12-06T09:57:50.806Z,10.68
2022-12-06T10:00:23.701Z,9.98
2022-12-06T10:03:12.104Z,12.15
2022-12-06T10:06:03.283Z,10.15
2022-12-06T10:08:49.313Z,10.38
2022-12-06T10:11:31.709Z,10.15
2022-12-06T10:14:21.056Z,10.77
2022-12-06T10:17:09.798Z,10.57
2022-12-06T10:19:53.156Z,11.10
2022-12-06T10:22:57.239Z,10.25
2022-12-06T10:25:34.724Z,11.20
2022-12-06T10:28:23.233Z,10.05
2022-12-06T10:30:58.370Z,10.25
2022-12-06T10:33:46.352Z,10.13
2022-12-06T10:36:24.035Z,10.30
2022-12-06T10:38:55.962Z,11.75
2022-12-06T10:41:30.750Z,10.77
2022-12-06T10:44:12.997Z,11.82
2022-12-06T10:47:05.465Z,12.07
2022-12-06T10:49:41.803Z,11.73
2022-12-06T10:52:17.394Z,12.38
2022-12-06T10:54:51.338Z,13.05
2022-12-06T10:57:24.852Z,13.80
2022-12-06T11:00:03.892Z,13.90
2022-12-06T11:02:35.686Z,11.90
2022-12-06T11:05:08.000Z,12.07
2022-12-06T11:07:43.272Z,10.27
2022-12-06T11:10:24.312Z,7.47
2022-12-06T11:13:01.035Z,7.30
2022-12-06T11:15:41.366Z,5.10
2022-12-06T11:18:13.585Z,4.47
2022-12-06T11:20:59.186Z,4.72
2022-12-06T11:24:00.940Z,4.13
2022-12-06T11:26:43.862Z,4.03
2022-12-06T11:29:13.077Z,3.35
2022-12-06T11:32:00.145Z,3.58
2022-12-06T11:34:46.655Z,3.03
2022-12-06T11:37:21.857Z,2.95
2022-12-06T11:39:59.583Z,3.08
2022-12-06T11:42:27.927Z,2.78
2022-12-06T11:45:08.903Z,3.05
2022-12-06T11:47:35.951Z,2.83
2022-12-06T11:50:09.262Z,3.20
2022-12-06T11:53:03.060Z,2.72
2022-12-06T11:55:42.504Z,2.72
2022-12-06T11:58:23.576Z,2.97
2022-12-06T12:01:06.335Z,3.05
2022-12-06T12:03:36.153Z,5.05
2022-12-06T12:06:27.847Z,3.50
2022-12-06T12:09:05.592Z,2.90
2022-12-06T12:11:37.679Z,3.17
2022-12-06T12:14:15.928Z,3.03
2022-12-06T12:16:49.479Z,3.50
2022-12-06T12:19:19.680Z,3.20
2022-12-06T12:21:51.003Z,3.08
2022-12-06T12:25:18.469Z,3.58
2022-12-06T12:27:41.369Z,2.88
2022-12-06T12:30:35.489Z,2.88
2022-12-06T12:33:05.707Z,3.08
2022-12-06T12:35:35.638Z,3.45
2022-12-06T12:38:15.827Z,3.30
2022-12-06T12:40:46.788Z,3.30
2022-12-06T12:43:13.714Z,3.38
2022-12-06T12:46:02.877Z,2.95
2022-12-06T12:48:30.591Z,4.10
2022-12-06T12:50:59.985Z,5.00
2022-12-06T12:53:32.406Z,4.68
2022-12-06T12:56:12.787Z,5.65
2022-12-06T12:58:41.091Z,4.05
2022-12-06T13:01:24.698Z,4.53
2022-12-06T13:03:57.560Z,4.97
2022-12-06T13:06:51.472Z,4.50
2022-12-06T13:09:41.495Z,4.75
2022-12-06T13:12:19.381Z,5.13
2022-12-06T13:15:48.069Z,5.15
2022-12-06T13:18:55.509Z,5.25
2022-12-06T13:21:33.132Z,5.70
2022-12-06T13:24:12.132Z,4.65
2022-12-06T13:26:40.938Z,4.60
2022-12-06T13:29:31.880Z,4.78
2022-12-06T13:32:05.979Z,5.80
2022-12-06T13:34:39.109Z,4.78
2022-12-06T13:37:43.704Z,4.05
2022-12-06T13:40:34.104Z,4.28
2022-12-06T13:43:23.888Z,4.25
2022-12-06T13:45:54.931Z,4.03
2022-12-06T13:48:25.087Z,4.10
2022-12-06T13:51:02.199Z,3.80
2022-12-06T13:53:35.080Z,4.72
2022-12-06T13:56:23.319Z,4.43
2022-12-06T13:58:54.391Z,3.90
2022-12-06T14:01:40.445Z,3.65
2022-12-06T14:09:44.715Z,3.55
2022-12-06T14:12:27.694Z,3.95
2022-12-06T14:15:02.489Z,3.97
2022-12-06T14:18:00.778Z,4.03
2022-12-06T14:20:24.597Z,4.32
2022-12-06T14:22:52.038Z,4.38
2022-12-06T14:25:30.556Z,3.72
2022-12-06T14:28:12.752Z,4.25
2022-12-06T14:30:40.237Z,4.82
2022-12-06T14:33:23.209Z,5.45
2022-12-06T14:35:54.856Z,5.60
2022-12-06T14:38:21.901Z,4.25
2022-12-06T14:41:07.897Z,4.50
2022-12-06T14:43:35.452Z,4.72
2022-12-06T14:46:06.526Z,4.63
2022-12-06T14:48:53.485Z,4.05
2022-12-06T14:51:23.864Z,5.15
2022-12-06T14:53:51.037Z,5.07
2022-12-06T14:56:30.080Z,5.80
2022-12-06T14:59:00.392Z,5.00
2022-12-06T15:01:30.542Z,6.15
2022-12-06T15:04:07.290Z,5.43
2022-12-06T15:06:37.751Z,5.70
2022-12-06T15:09:15.237Z,5.95
2022-12-06T15:12:02.491Z,5.07
2022-12-06T15:14:49.230Z,4.72
2022-12-06T15:17:19.677Z,4.75
2022-12-06T15:19:52.388Z,4.97
2022-12-06T15:22:25.288Z,6.13
2022-12-06T15:24:57.886Z,5.80
2022-12-06T15:27:27.175Z,5.10
2022-12-06T15:29:54.503Z,5.70
2022-12-06T15:32:23.949Z,4.82
2022-12-06T15:34:51.048Z,5.15
2022-12-06T15:40:06.102Z,4.85
2022-12-06T15:42:33.196Z,5.10
2022-12-06T15:45:01.493Z,4.93
2022-12-06T15:47:28.588Z,4.38
2022-12-06T15:49:58.485Z,5.50
2022-12-06T15:52:26.910Z,4.63
2022-12-06T15:54:54.002Z,4.65
2022-12-06T15:57:21.150Z,5.30
2022-12-06T15:59:48.249Z,7.03
2022-12-06T16:02:18.008Z,6.50
2022-12-06T16:04:45.941Z,7.03
2022-12-06T16:07:18.656Z,7.35
2022-12-06T16:09:47.022Z,7.13
2022-12-06T16:12:14.094Z,6.63
2022-12-06T16:14:41.112Z,6.63
2022-12-06T16:17:08.257Z,6.60
2022-12-06T16:19:54.005Z,7.40
2022-12-06T16:22:41.036Z,8.27
2022-12-06T16:25:08.563Z,6.72
2022-12-06T16:27:35.624Z,6.78
2022-12-06T16:30:05.029Z,6.88
2022-12-06T16:32:33.292Z,6.95
2022-12-06T16:35:00.967Z,7.53
2022-12-06T16:37:30.563Z,8.70
2022-12-06T16:39:57.644Z,8.80
2022-12-06T16:42:24.646Z,8.90
2022-12-06T16:44:51.835Z,8.82
2022-12-06T16:49:48.006Z,7.20
2022-12-06T16:52:16.686Z,8.57
2022-12-06T16:54:44.265Z,8.20
2022-12-06T16:57:12.088Z,8.38
2022-12-06T16:59:39.107Z,9.43
2022-12-06T17:02:19.568Z,8.38
2022-12-06T17:04:46.725Z,9.60
2022-12-06T17:07:14.061Z,8.05
2022-12-06T17:09:41.515Z,8.10
2022-12-06T17:12:13.220Z,8.48
2022-12-06T17:14:41.225Z,7.53
2022-12-06T17:17:14.595Z,8.70
2022-12-06T17:19:42.725Z,8.20
2022-12-06T17:22:11.695Z,7.57
2022-12-06T17:24:38.966Z,8.90
2022-12-06T17:27:07.132Z,8.05
2022-12-06T17:29:34.489Z,9.30
2022-12-06T17:32:01.756Z,9.45
2022-12-06T17:34:29.008Z,9.30
2022-12-06T17:36:57.550Z,10.80
2022-12-06T17:39:24.943Z,11.52
2022-12-06T17:42:10.547Z,11.05
2022-12-06T17:44:39.936Z,10.80
2022-12-06T17:47:07.456Z,11.27
2022-12-06T17:49:36.313Z,10.63
2022-12-06T17:52:03.990Z,11.35
2022-12-06T17:54:32.777Z,11.15
2022-12-06T17:56:59.829Z,11.45
2022-12-06T17:59:29.518Z,10.88
2022-12-06T18:02:17.423Z,11.00
2022-12-06T18:04:46.669Z,11.07
2022-12-06T18:07:14.268Z,9.73
2022-12-06T18:09:41.341Z,11.07
2022-12-06T18:12:09.959Z,11.25
2022-12-06T18:14:36.985Z,10.85
2022-12-06T18:17:04.494Z,11.43
2022-12-06T18:19:32.141Z,9.52
2022-12-06T18:21:59.218Z,10.50
2022-12-06T18:24:30.513Z,11.60
2022-12-06T18:27:01.844Z,12.02
2022-12-06T18:29:29.063Z,11.35
2022-12-06T18:31:56.250Z,10.85
2022-12-06T18:34:23.473Z,10.80
2022-12-06T18:36:51.381Z,11.63
2022-12-06T18:39:24.701Z,10.93
2022-12-06T18:41:53.924Z,11.45
2022-12-06T18:44:21.756Z,10.23
2022-12-06T18:46:55.970Z,10.68
2022-12-06T18:49:23.088Z,11.13
2022-12-06T18:51:50.163Z,12.07
2022-12-06T18:54:17.337Z,11.00
2022-12-06T18:56:44.414Z,10.63
2022-12-06T18:59:12.701Z,10.82
2022-12-06T19:01:41.293Z,11.38
2022-12-06T19:04:09.659Z,13.10
2022-12-06T19:06:38.360Z,12.20
2022-12-06T19:09:09.840Z,11.55
2022-12-06T19:11:42.180Z,12.35
2022-12-06T19:14:10.229Z,12.98
2022-12-06T19:16:43.561Z,14.55
2022-12-06T19:21:46.803Z,14.60
2022-12-06T19:24:16.100Z,29.45
2022-12-06T19:26:43.621Z,31.15
2022-12-06T19:29:10.743Z,30.83
2022-12-06T19:31:37.878Z,26.35
2022-12-06T19:34:05.930Z,27.15
2022-12-06T19:36:33.468Z,31.55
2022-12-06T19:39:07.313Z,25.20
2022-12-06T19:41:53.250Z,24.58
2022-12-06T19:44:22.250Z,20.63
2022-12-06T19:46:49.744Z,19.30
2022-12-06T19:49:18.995Z,18.83
2022-12-06T19:51:48.163Z,18.50
2022-12-06T19:54:21.206Z,19.90
2022-12-06T19:56:53.592Z,20.13
2022-12-06T19:59:21.993Z,17.97
2022-12-06T20:01:50.352Z,17.75
2022-12-06T20:04:20.576Z,17.05
2022-12-06T20:06:49.598Z,16.27
2022-12-06T20:09:17.332Z,15.75
2022-12-06T20:12:04.037Z,16.55
2022-12-06T20:14:39.126Z,17.50
2022-12-06T20:17:10.175Z,16.85
2022-12-06T20:19:38.218Z,16.30
2022-12-06T20:22:05.634Z,17.35
2022-12-06T20:24:32.768Z,19.05
2022-12-06T20:26:59.973Z,18.13
2022-12-06T20:29:27.594Z,17.67
2022-12-06T20:31:58.219Z,18.13
2022-12-06T20:34:26.292Z,19.00
2022-12-06T20:36:53.721Z,18.65
2022-12-06T20:39:23.684Z,17.30
2022-12-06T20:41:51.474Z,18.35
2022-12-06T20:44:19.113Z,18.67
2022-12-06T20:46:48.098Z,17.98
2022-12-06T20:49:16.373Z,19.15
2022-12-06T20:51:48.093Z,19.75
2022-12-06T20:54:18.478Z,19.17
2022-12-06T20:56:47.288Z,21.33
2022-12-06T20:59:14.387Z,19.58
2022-12-06T21:01:41.872Z,19.25
2022-12-06T21:04:12.473Z,19.23
2022-12-06T21:06:40.243Z,19.60
2022-12-06T21:09:07.704Z,18.48
2022-12-06T21:11:35.201Z,19.80
2022-12-06T21:14:03.847Z,18.60
2022-12-06T21:16:33.101Z,17.02
2022-12-06T21:19:06.149Z,20.30
2022-12-06T21:21:36.692Z,22.83
2022-12-06T21:24:06.475Z,19.75
2022-12-06T21:26:34.413Z,18.40
2022-12-06T21:29:03.341Z,17.98
2022-12-06T21:31:34.967Z,17.83
2022-12-06T21:34:03.276Z,19.83
2022-12-06T21:36:32.184Z,17.88
2022-12-06T21:38:59.754Z,17.83
2022-12-06T21:41:27.494Z,16.73
2022-12-06T21:43:54.517Z,17.02
2022-12-06T21:46:25.468Z,17.73
2022-12-06T21:49:00.315Z,19.63
2022-12-06T21:51:31.763Z,19.42
2022-12-06T21:54:00.082Z,40.22
2022-12-06T21:56:29.402Z,32.63
2022-12-06T21:58:57.033Z,30.88
2022-12-06T22:01:29.571Z,34.10
2022-12-06T22:04:00.326Z,26.67
2022-12-06T22:06:27.989Z,21.33
2022-12-06T22:09:04.888Z,20.60
2022-12-06T22:11:33.984Z,18.48
2022-12-06T22:14:02.063Z,18.73
2022-12-06T22:16:30.053Z,17.58
2022-12-06T22:18:58.118Z,18.73
2022-12-06T22:21:28.295Z,16.98
2022-12-06T22:24:00.046Z,18.40
2022-12-06T22:26:29.047Z,16.15
2022-12-06T22:28:56.494Z,16.35
2022-12-06T22:31:26.380Z,16.40
2022-12-06T22:33:54.188Z,16.40
2022-12-06T22:36:22.622Z,16.23
2022-12-06T22:38:55.681Z,15.85
2022-12-06T22:41:24.048Z,16.75
2022-12-06T22:43:53.246Z,15.50
2022-12-06T22:46:20.981Z,16.85
2022-12-06T22:48:48.416Z,15.57
2022-12-06T22:51:27.068Z,13.88
2022-12-06T22:54:03.093Z,13.07
2022-12-06T22:56:31.472Z,15.07
2022-12-06T22:59:00.145Z,14.40
2022-12-06T23:01:30.288Z,14.82
2022-12-06T23:04:00.222Z,14.07
2022-12-06T23:06:27.763Z,17.45
2022-12-06T23:08:55.381Z,17.20
2022-12-06T23:11:26.770Z,16.35
2022-12-06T23:13:55.038Z,15.93
2022-12-06T23:16:25.452Z,15.80
2022-12-06T23:18:52.825Z,16.35
2022-12-06T23:21:22.175Z,15.27
2022-12-06T23:23:51.790Z,14.80
2022-12-06T23:26:23.835Z,14.70
2022-12-06T23:28:52.038Z,16.60
2022-12-06T23:31:27.929Z,15.82
2022-12-06T23:33:57.933Z,15.82
2022-12-06T23:36:29.084Z,14.77
2022-12-06T23:38:56.410Z,14.38
2022-12-06T23:41:26.344Z,15.63
2022-12-06T23:43:54.820Z,13.73
2022-12-06T23:46:24.350Z,12.93
2022-12-06T23:48:52.677Z,13.65
2022-12-06T23:51:25.497Z,14.88
2022-12-06T23:53:54.924Z,14.50
2022-12-06T23:56:22.658Z,14.20
2022-12-06T23:58:50.939Z,13.80
